Time;durP1;ratioP1;P1;durP2;ratioP2;P2;SDS_P1;SDS_P2;PMS_P1;PMS_P2;Temp;Humidity;BMP_temperature;BMP_pressure;BME280_temperature;BME280_humidity;BME280_pressure;Samples;Min_cycle;Max_cycle;Signal;HPM_P1;HPM_P2
2023/09/14 00:00:54;;;;;;;4.85;3.30;;;;;;;27.70;52.07;101192.88;21068658;28;20063;-55
2023/09/14 00:10:58;;;;;;;4.43;3.30;;;;;;;27.67;51.98;101188.69;21053625;28;20036;-54
2023/09/14 00:20:59;;;;;;;4.97;3.92;;;;;;;27.75;52.00;101209.63;21061064;28;20044;-54
2023/09/14 00:31:01;;;;;;;5.40;3.63;;;;;;;27.80;52.10;101223.56;21059553;28;20748;-58
2023/09/14 00:41:02;;;;;;;4.50;3.72;;;;;;;27.82;51.79;101230.53;21069602;28;20044;-57
2023/09/14 00:51:04;;;;;;;4.60;3.47;;;;;;;27.77;52.00;101233.47;21073160;28;20078;-55
2023/09/14 01:01:08;;;;;;;6.82;3.38;;;;;;;27.83;51.98;101240.63;21068903;28;20048;-59
2023/09/14 01:11:09;;;;;;;5.50;3.22;;;;;;;27.86;52.32;101253.22;21066153;28;20036;-61
2023/09/14 01:21:48;;;;;;;4.03;3.50;;;;;;;27.82;52.34;101253.03;21071264;28;20487;-60
2023/09/14 01:31:49;;;;;;;3.58;3.05;;;;;;;27.92;52.27;101273.59;21064618;28;20058;-58
2023/09/14 01:41:55;;;;;;;3.55;3.22;;;;;;;27.92;52.37;101271.63;21051623;28;20036;-59
2023/09/14 01:51:57;;;;;;;5.10;3.53;;;;;;;27.94;52.15;101265.66;21072149;28;20048;-61
2023/09/14 02:01:58;;;;;;;4.85;3.90;;;;;;;28.07;51.70;101281.63;21086804;28;20491;-60
2023/09/14 02:11:59;;;;;;;4.93;3.55;;;;;;;28.09;51.87;101285.78;21050142;28;20129;-61
2023/09/14 02:22:01;;;;;;;4.70;3.65;;;;;;;28.00;51.79;101282.09;21087838;28;20081;-60
2023/09/14 02:32:05;;;;;;;4.72;4.25;;;;;;;28.07;51.83;101298.50;21080429;28;20040;-59
2023/09/14 02:42:07;;;;;;;6.55;4.30;;;;;;;28.17;51.82;101323.56;21074203;28;20036;-60
2023/09/14 02:52:08;;;;;;;5.40;4.60;;;;;;;28.12;52.00;101320.88;21078009;28;20090;-60
2023/09/14 03:02:13;;;;;;;5.60;4.90;;;;;;;28.20;52.20;101339.81;21072316;28;20044;-60
2023/09/14 03:12:14;;;;;;;5.18;4.40;;;;;;;28.18;52.14;101356.19;21081607;28;20052;-60
2023/09/14 03:22:16;;;;;;;4.88;4.30;;;;;;;28.09;51.91;101335.59;21073090;28;20054;-59
2023/09/14 03:32:17;;;;;;;5.95;4.20;;;;;;;28.25;52.03;101345.28;21080895;28;20491;-59
2023/09/14 03:42:18;;;;;;;6.53;4.40;;;;;;;28.27;52.20;101353.41;21074016;28;20418;-59
2023/09/14 03:52:20;;;;;;;6.13;4.28;;;;;;;28.28;52.21;101338.22;21081187;28;20047;-59
2023/09/14 04:02:21;;;;;;;4.43;3.80;;;;;;;28.29;52.32;101343.50;21055278;28;20097;-59
2023/09/14 04:12:22;;;;;;;6.00;4.18;;;;;;;28.30;52.39;101345.16;21043932;28;20387;-59
2023/09/14 04:22:24;;;;;;;5.13;4.50;;;;;;;28.20;52.38;101353.88;21075628;28;20044;-58
2023/09/14 04:32:25;;;;;;;5.63;4.55;;;;;;;28.30;52.34;101347.97;21066546;28;20040;-59
2023/09/14 04:42:26;;;;;;;4.65;3.80;;;;;;;28.34;52.20;101363.09;21072787;28;20035;-59
2023/09/14 04:52:28;;;;;;;5.10;4.28;;;;;;;28.34;52.36;101351.84;21070433;28;20074;-59
2023/09/14 05:02:29;;;;;;;4.82;4.40;;;;;;;28.33;52.43;101358.59;21065535;28;20168;-60
2023/09/14 05:12:30;;;;;;;4.35;3.95;;;;;;;28.37;52.74;101358.81;21072152;28;20036;-60
2023/09/14 05:22:32;;;;;;;4.10;3.70;;;;;;;28.38;52.53;101356.84;21074658;28;20430;-58
2023/09/14 05:32:33;;;;;;;4.45;4.05;;;;;;;28.39;52.46;101355.69;21081130;28;20082;-59
2023/09/14 05:42:37;;;;;;;5.20;4.13;;;;;;;28.36;52.51;101360.81;21085403;28;20044;-59
2023/09/14 05:52:38;;;;;;;4.45;3.80;;;;;;;28.39;52.64;101338.78;21071975;28;20052;-58
2023/09/14 06:02:42;;;;;;;4.20;3.72;;;;;;;28.41;52.63;101347.72;21079635;28;20040;-59
2023/09/14 06:12:44;;;;;;;4.40;3.85;;;;;;;28.41;52.60;101353.34;21079207;28;20039;-60
2023/09/14 06:22:45;;;;;;;3.78;3.20;;;;;;;28.43;52.48;101356.69;21078994;28;20044;-59
2023/09/14 06:32:47;;;;;;;4.40;3.28;;;;;;;28.28;52.67;101339.03;21074196;28;20077;-59
2023/09/14 06:42:48;;;;;;;4.05;3.65;;;;;;;28.36;52.74;101346.75;21075409;28;20044;-59
2023/09/14 06:52:49;;;;;;;4.28;3.60;;;;;;;28.45;52.31;101371.28;21060860;28;20089;-59
2023/09/14 07:02:53;;;;;;;3.65;3.25;;;;;;;28.44;52.79;101366.78;21072670;28;20032;-59
2023/09/14 07:12:54;;;;;;;3.58;3.28;;;;;;;28.45;52.62;101363.66;21059080;28;20052;-59
2023/09/14 07:22:55;;;;;;;3.88;3.47;;;;;;;28.46;52.61;101361.69;21074641;28;20097;-59
2023/09/14 07:32:59;;;;;;;3.55;3.25;;;;;;;28.46;52.66;101370.13;21073531;28;20047;-60
2023/09/14 07:43:01;;;;;;;3.97;3.55;;;;;;;28.47;52.65;101385.88;21081572;28;20036;-58
2023/09/14 07:53:03;;;;;;;3.50;3.03;;;;;;;28.36;52.67;101365.59;21075070;28;20074;-59
2023/09/14 08:03:05;;;;;;;3.50;2.72;;;;;;;28.43;52.86;101373.59;21071274;28;20044;-60
2023/09/14 08:13:06;;;;;;;3.35;3.03;;;;;;;28.48;52.55;101410.03;21058531;28;20056;-60
2023/09/14 08:23:07;;;;;;;3.33;3.00;;;;;;;28.46;52.75;101407.56;21054822;28;20039;-58
2023/09/14 08:33:10;;;;;;;4.45;3.53;;;;;;;28.49;52.61;101437.88;21068956;28;20044;-59
2023/09/14 08:43:14;;;;;;;3.20;2.90;;;;;;;28.46;52.66;101441.34;21059246;28;20494;-59
2023/09/14 08:53:17;;;;;;;3.20;2.88;;;;;;;28.46;52.63;101451.78;21047982;28;20040;-59
2023/09/14 09:03:19;;;;;;;3.00;2.70;;;;;;;28.48;52.68;101480.44;21060652;28;20044;-58
2023/09/14 09:13:22;;;;;;;3.05;2.60;;;;;;;28.47;52.53;101490.84;21071708;28;20066;-59
2023/09/14 09:23:25;;;;;;;2.83;2.50;;;;;;;28.46;52.75;101491.19;21067640;28;20048;-59
2023/09/14 09:33:36;;;;;;;3.00;2.60;;;;;;;28.35;52.73;101471.72;21062938;28;20506;-60
2023/09/14 09:43:41;;;;;;;2.80;2.60;;;;;;;28.47;52.74;101499.31;21071284;28;20036;-59
2023/09/14 09:54:04;;;;;;;2.80;2.50;;;;;;;28.42;52.66;101491.00;21030362;28;20036;-59
2023/09/14 10:04:16;;;;;;;2.60;2.40;;;;;;;28.46;52.60;101502.44;21059906;28;20036;-59
2023/09/14 10:14:23;;;;;;;3.00;2.70;;;;;;;28.47;52.66;101515.38;21062335;28;20452;-58
2023/09/14 10:24:26;;;;;;;2.85;2.63;;;;;;;28.47;52.51;101521.00;21060526;28;20044;-59
2023/09/14 10:34:29;;;;;;;3.65;2.58;;;;;;;28.38;52.62;101525.72;21071868;28;20048;-59
2023/09/14 10:44:32;;;;;;;2.55;2.35;;;;;;;28.46;52.61;101558.75;21059750;28;20501;-59
2023/09/14 10:54:35;;;;;;;2.83;2.47;;;;;;;28.34;52.55;101540.41;21071111;28;20048;-59
2023/09/14 11:05:16;;;;;;;2.38;2.08;;;;;;;28.30;52.52;101544.97;21056333;28;20037;-59
2023/09/14 11:15:22;;;;;;;2.90;2.40;;;;;;;28.44;52.49;101604.09;21058315;28;20069;-58
2023/09/14 11:25:36;;;;;;;2.53;2.33;;;;;;;28.44;52.52;101618.16;21073793;28;20032;-59
2023/09/14 11:35:39;;;;;;;6.72;3.10;;;;;;;28.44;52.53;101623.78;21069982;28;20056;-59
2023/09/14 11:45:41;;;;;;;8.27;3.38;;;;;;;28.43;52.68;101624.13;21078011;28;20066;-59
2023/09/14 11:55:43;;;;;;;6.65;2.88;;;;;;;28.43;52.77;101635.38;21082417;28;20540;-59
2023/09/14 12:05:48;;;;;;;7.45;2.92;;;;;;;28.42;52.71;101650.63;21078707;28;20093;-59
2023/09/14 12:16:01;;;;;;;4.90;2.78;;;;;;;28.39;52.61;101659.69;21080317;28;20463;-58
2023/09/14 12:26:06;;;;;;;6.15;3.03;;;;;;;28.42;52.65;101653.44;21078994;28;20121;-59
2023/09/14 12:36:11;;;;;;;6.80;2.60;;;;;;;28.42;52.54;101653.44;21077650;28;20056;-59
2023/09/14 12:46:13;;;;;;;2.95;2.50;;;;;;;28.34;52.36;101653.00;21075640;28;20032;-59
2023/09/14 12:56:15;;;;;;;4.47;2.65;;;;;;;28.40;52.22;101672.59;21082495;28;20078;-59
2023/09/14 13:06:16;;;;;;;5.93;2.75;;;;;;;28.28;52.28;101668.31;21076409;28;20475;-59
2023/09/14 13:16:18;;;;;;;4.43;2.60;;;;;;;28.38;51.94;101687.00;21076137;28;20383;-60
2023/09/14 13:26:22;;;;;;;3.55;2.53;;;;;;;28.30;52.04;101685.72;21076401;28;20040;-59
2023/09/14 13:36:24;;;;;;;3.33;2.22;;;;;;;28.39;51.89;101704.72;21075423;28;20044;-59
2023/09/14 13:46:25;;;;;;;3.38;2.40;;;;;;;28.40;51.57;101714.81;21075269;28;20040;-59
2023/09/14 13:56:27;;;;;;;2.72;2.15;;;;;;;28.35;51.70;101712.94;21087151;28;20475;-59
2023/09/14 14:06:28;;;;;;;3.97;2.40;;;;;;;28.38;51.69;101722.75;21090348;28;20394;-60
2023/09/14 14:16:30;;;;;;;3.95;2.20;;;;;;;28.36;51.57;101734.31;21090206;28;20410;-59
2023/09/14 14:26:31;;;;;;;2.78;2.30;;;;;;;28.36;51.39;101738.00;21088375;28;20487;-59
2023/09/14 14:36:33;;;;;;;3.47;2.42;;;;;;;28.40;51.76;101757.06;21087915;28;20044;-59
2023/09/14 14:46:34;;;;;;;2.80;2.20;;;;;;;28.39;51.44;101749.75;21086965;28;20040;-59
2023/09/14 14:56:35;;;;;;;4.80;2.42;;;;;;;28.38;51.49;101750.91;21086142;28;20040;-59
2023/09/14 15:06:37;;;;;;;2.67;1.88;;;;;;;28.40;51.58;101742.97;21084907;28;20097;-59
2023/09/14 15:16:38;;;;;;;2.28;2.08;;;;;;;28.38;51.42;101739.66;21085032;28;20462;-59
2023/09/14 15:26:40;;;;;;;1.90;1.70;;;;;;;28.42;51.42;101746.31;21084057;28;20479;-60
2023/09/14 15:36:41;;;;;;;2.25;2.05;;;;;;;28.42;51.46;101735.06;21082911;28;20069;-59
2023/09/14 15:46:43;;;;;;;3.92;1.77;;;;;;;28.36;49.54;101732.38;21082325;28;20435;-60
2023/09/14 15:56:45;;;;;;;1.88;1.77;;;;;;;28.17;48.91;101725.94;21081750;28;20047;-59
2023/09/14 16:06:49;;;;;;;2.17;1.98;;;;;;;28.06;48.79;101730.13;21080571;28;20475;-60
2023/09/14 16:16:50;;;;;;;2.05;1.90;;;;;;;27.95;48.14;101717.38;21079042;28;20035;-59
2023/09/14 16:26:52;;;;;;;2.30;1.75;;;;;;;27.86;48.13;101723.75;21079196;28;20061;-58
2023/09/14 16:36:55;;;;;;;2.45;1.90;;;;;;;27.78;47.82;101701.94;21078223;28;20565;-58
2023/09/14 16:46:56;;;;;;;1.90;1.75;;;;;;;27.71;48.29;101689.41;21077640;28;20043;-59
2023/09/14 16:57:03;;;;;;;2.58;1.80;;;;;;;27.59;47.94;101682.31;21077540;28;20087;-60
2023/09/14 17:07:05;;;;;;;2.13;1.58;;;;;;;27.56;47.55;101673.66;21075142;28;20032;-58
2023/09/14 17:17:06;;;;;;;1.60;1.50;;;;;;;27.48;47.58;101654.69;21076522;28;20047;-59
2023/09/14 17:27:09;;;;;;;2.20;2.00;;;;;;;27.46;47.47;101659.78;21083794;28;20066;-60
2023/09/14 17:37:11;;;;;;;1.70;1.60;;;;;;;27.38;47.53;101658.50;21089223;28;20276;-58
2023/09/14 17:47:18;;;;;;;1.55;1.40;;;;;;;27.28;47.45;101642.66;21091876;28;20117;-58
2023/09/14 17:57:19;;;;;;;4.18;2.13;;;;;;;27.17;46.07;101629.94;21086712;28;20051;-60
2023/09/14 18:07:21;;;;;;;2.40;1.48;;;;;;;27.16;45.80;101631.06;21085726;28;20133;-57
2023/09/14 18:17:22;;;;;;;3.60;1.75;;;;;;;27.07;45.65;101618.81;21080705;28;20052;-56
2023/09/14 18:27:24;;;;;;;2.35;1.70;;;;;;;27.04;45.46;101616.66;21083582;28;20040;-57
2023/09/14 18:37:25;;;;;;;3.45;1.70;;;;;;;26.93;45.66;101596.31;21076007;28;20116;-56
2023/09/14 18:47:29;;;;;;;5.10;1.85;;;;;;;26.85;45.42;101577.38;21080508;28;20051;-56
2023/09/14 18:57:31;;;;;;;3.67;2.03;;;;;;;26.89;45.36;101588.78;21078058;28;20032;-56
2023/09/14 19:07:32;;;;;;;2.60;1.73;;;;;;;26.81;45.40;101577.13;21081494;28;20463;-55
2023/09/14 19:17:33;;;;;;;4.40;1.88;;;;;;;26.74;45.44;101564.63;21043533;28;20499;-57
2023/09/14 19:27:35;;;;;;;4.47;1.95;;;;;;;26.69;45.16;101557.13;21078842;28;20479;-56
2023/09/14 19:37:38;;;;;;;2.70;1.80;;;;;;;26.63;45.28;101535.06;21055082;28;20044;-57
2023/09/14 19:47:41;;;;;;;2.90;1.80;;;;;;;26.69;44.99;101561.91;21073334;28;20183;-55
2023/09/14 19:57:42;;;;;;;4.03;2.03;;;;;;;26.50;44.07;101545.09;21068310;28;20110;-56
2023/09/14 20:07:46;;;;;;;2.13;1.75;;;;;;;26.56;44.95;101563.50;21062610;28;20036;-56
2023/09/14 20:17:48;;;;;;;2.05;1.73;;;;;;;26.65;48.59;101566.44;21081011;28;20036;-55
2023/09/14 20:27:49;;;;;;;2.08;1.77;;;;;;;26.81;49.23;101559.47;21069742;28;20044;-57
2023/09/14 20:37:53;;;;;;;3.40;1.92;;;;;;;26.88;49.33;101545.00;21061835;28;20179;-52
2023/09/14 20:47:56;;;;;;;1.83;1.70;;;;;;;27.05;49.01;101548.09;21070237;28;20044;-57
2023/09/14 20:58:03;;;;;;;2.25;1.88;;;;;;;27.10;48.96;101556.44;21065258;28;20039;-57
2023/09/14 21:08:08;;;;;;;2.50;1.80;;;;;;;27.16;48.79;101566.44;21052568;28;20039;-57
2023/09/14 21:18:09;;;;;;;3.95;1.90;;;;;;;27.19;48.92;101560.22;21056535;28;20475;-58
2023/09/14 21:28:11;;;;;;;8.68;2.17;;;;;;;27.27;48.97;101562.31;21074941;28;20044;-58
2023/09/14 21:38:12;;;;;;;2.72;1.63;;;;;;;27.30;48.75;101558.88;21023411;28;20098;-58
2023/09/14 21:48:14;;;;;;;3.38;1.58;;;;;;;27.29;48.79;101554.41;20991016;28;20041;-56
2023/09/14 21:58:15;;;;;;;1.92;1.80;;;;;;;27.42;48.70;101563.16;21034452;28;20078;-56
2023/09/14 22:08:16;;;;;;;2.63;1.60;;;;;;;27.46;48.46;101569.84;21074232;28;20036;-57
2023/09/14 22:18:18;;;;;;;4.43;2.15;;;;;;;27.45;48.46;101568.19;21087780;28;20105;-58
2023/09/14 22:28:20;;;;;;;2.90;1.92;;;;;;;27.51;48.48;101567.75;21064902;28;20081;-55
2023/09/14 22:38:25;;;;;;;2.28;2.03;;;;;;;27.54;48.43;101569.94;21059193;28;20368;-57
2023/09/14 22:48:28;;;;;;;2.45;1.65;;;;;;;27.55;48.46;101574.44;21042752;28;20105;-54
2023/09/14 22:58:32;;;;;;;1.65;1.55;;;;;;;27.53;48.23;101584.31;21082637;28;20040;-56
2023/09/14 23:08:37;;;;;;;4.57;2.47;;;;;;;27.63;48.70;101606.63;21065445;28;20036;-54
2023/09/14 23:18:38;;;;;;;9.82;3.45;;;;;;;27.68;50.75;101600.88;21023465;28;20040;-55
2023/09/14 23:28:40;;;;;;;12.32;4.10;;;;;;;27.72;51.87;101603.91;21058037;28;20073;-57
2023/09/14 23:38:42;;;;;;;9.30;3.38;;;;;;;27.63;52.38;101586.94;21080446;28;20055;-54
2023/09/14 23:48:47;;;;;;;15.25;3.70;;;;;;;27.75;52.39;101612.56;21078240;28;20463;-59
2023/09/14 23:58:48;;;;;;;5.55;2.70;;;;;;;27.79;52.42;101636.13;21080441;28;20040;-54
